Time;durP1;ratioP1;P1;durP2;ratioP2;P2;SDS_P1;SDS_P2;PMS_P1;PMS_P2;Temp;Humidity;BMP_temperature;BMP_pressure;BME280_temperature;BME280_humidity;BME280_pressure;Samples;Min_cycle;Max_cycle;Signal;HPM_P1;HPM_P2
2022/05/31 00:00:44;;;;;;;2.00;1.83;;;;;;;;;;4957494;29;20308;-87
2022/05/31 00:03:11;;;;;;;2.40;1.65;;;;;;;;;;4955962;29;20208;-87
2022/05/31 00:05:40;;;;;;;2.05;1.85;;;;;;;;;;4953021;29;20313;-87
2022/05/31 00:08:08;;;;;;;2.10;1.80;;;;;;;;;;4952843;29;20236;-87
2022/05/31 00:10:35;;;;;;;2.03;1.85;;;;;;;;;;4956835;29;20200;-87
2022/05/31 00:13:02;;;;;;;1.83;1.65;;;;;;;;;;4955975;29;20217;-87
2022/05/31 00:15:29;;;;;;;1.95;1.75;;;;;;;;;;4956888;29;20295;-87
2022/05/31 00:17:57;;;;;;;2.00;1.80;;;;;;;;;;4956819;29;20700;-87
2022/05/31 00:20:25;;;;;;;1.83;1.33;;;;;;;;;;4956769;29;20680;-87
2022/05/31 00:22:54;;;;;;;2.42;1.67;;;;;;;;;;4966079;29;20399;-87
2022/05/31 00:25:21;;;;;;;1.77;1.67;;;;;;;;;;4954130;29;20307;-87
2022/05/31 00:27:48;;;;;;;1.90;1.80;;;;;;;;;;4953304;29;20252;-87
2022/05/31 00:30:17;;;;;;;1.85;1.75;;;;;;;;;;4958119;29;20232;-87
2022/05/31 00:32:48;;;;;;;1.58;1.48;;;;;;;;;;4957943;29;20211;-87
2022/05/31 00:35:17;;;;;;;1.90;1.70;;;;;;;;;;4955509;29;20201;-87
2022/05/31 00:37:44;;;;;;;1.77;1.67;;;;;;;;;;4954973;29;20246;-87
2022/05/31 00:40:16;;;;;;;1.70;1.60;;;;;;;;;;4950070;29;20215;-87
2022/05/31 00:42:54;;;;;;;1.88;1.70;;;;;;;;;;4949007;28;20204;-87
2022/05/31 00:45:22;;;;;;;1.70;1.60;;;;;;;;;;4952057;29;20315;-87
2022/05/31 00:47:50;;;;;;;1.77;1.63;;;;;;;;;;4950355;29;20227;-87
2022/05/31 00:50:22;;;;;;;1.63;1.52;;;;;;;;;;4945446;28;20212;-86
2022/05/31 00:52:50;;;;;;;2.17;1.90;;;;;;;;;;4948598;28;20292;-87
2022/05/31 00:55:22;;;;;;;1.90;1.80;;;;;;;;;;4955049;29;20208;-87
2022/05/31 00:57:51;;;;;;;2.20;2.00;;;;;;;;;;4955883;29;20251;-86
2022/05/31 01:00:19;;;;;;;1.83;1.73;;;;;;;;;;4950031;29;20300;-87
2022/05/31 01:02:49;;;;;;;1.83;1.73;;;;;;;;;;4953316;29;20240;-87
2022/05/31 01:05:16;;;;;;;1.90;1.70;;;;;;;;;;4956576;29;20228;-87
2022/05/31 01:07:43;;;;;;;1.70;1.60;;;;;;;;;;4957194;29;20282;-87
2022/05/31 01:10:12;;;;;;;1.63;1.52;;;;;;;;;;4955981;29;20232;-87
2022/05/31 01:12:42;;;;;;;2.03;1.70;;;;;;;;;;4954293;29;20224;-87
2022/05/31 01:15:10;;;;;;;1.98;1.70;;;;;;;;;;4956396;29;20208;-87
2022/05/31 01:17:37;;;;;;;1.88;1.77;;;;;;;;;;4957655;29;20231;-87
2022/05/31 01:20:06;;;;;;;1.98;1.77;;;;;;;;;;4954283;29;20247;-84
2022/05/31 01:22:37;;;;;;;1.90;1.80;;;;;;;;;;4955160;29;20208;-84
2022/05/31 01:25:10;;;;;;;1.90;1.70;;;;;;;;;;4958361;29;20252;-84
2022/05/31 01:27:42;;;;;;;1.67;1.58;;;;;;;;;;4959120;29;20804;-85
2022/05/31 01:30:10;;;;;;;1.98;1.58;;;;;;;;;;4958923;29;20276;-84
2022/05/31 01:32:40;;;;;;;1.50;1.40;;;;;;;;;;4957158;29;20215;-86
2022/05/31 01:35:11;;;;;;;1.73;1.63;;;;;;;;;;4956137;29;20197;-84
2022/05/31 01:37:41;;;;;;;1.75;1.65;;;;;;;;;;4958969;29;20228;-84
2022/05/31 01:40:11;;;;;;;1.60;1.50;;;;;;;;;;4958830;29;20247;-83
2022/05/31 01:42:40;;;;;;;1.60;1.50;;;;;;;;;;4957952;29;20291;-83
2022/05/31 01:45:09;;;;;;;1.65;1.48;;;;;;;;;;4958053;29;20235;-84
2022/05/31 01:47:37;;;;;;;1.95;1.65;;;;;;;;;;4951446;29;20228;-84
2022/05/31 01:50:05;;;;;;;1.70;1.60;;;;;;;;;;4957969;29;20254;-84
2022/05/31 01:52:35;;;;;;;1.67;1.58;;;;;;;;;;4957525;29;20268;-84
2022/05/31 01:55:02;;;;;;;3.20;1.75;;;;;;;;;;4949587;28;20208;-84
2022/05/31 01:57:32;;;;;;;1.70;1.60;;;;;;;;;;4939729;29;20229;-84
2022/05/31 02:00:02;;;;;;;1.60;1.50;;;;;;;;;;4951691;29;20209;-84
2022/05/31 02:02:29;;;;;;;1.88;1.60;;;;;;;;;;4956654;29;20267;-83
2022/05/31 02:04:56;;;;;;;2.15;1.60;;;;;;;;;;4958007;29;20309;-83
2022/05/31 02:07:25;;;;;;;1.80;1.70;;;;;;;;;;4957357;29;20305;-83
2022/05/31 02:09:54;;;;;;;1.67;1.50;;;;;;;;;;4957394;29;20208;-83
2022/05/31 02:12:22;;;;;;;1.67;1.58;;;;;;;;;;4957220;29;20672;-83
2022/05/31 02:14:50;;;;;;;1.65;1.55;;;;;;;;;;4957070;29;20287;-83
2022/05/31 02:17:17;;;;;;;2.05;1.70;;;;;;;;;;4957426;29;20233;-83
2022/05/31 02:19:45;;;;;;;1.75;1.63;;;;;;;;;;4957230;29;20208;-83
2022/05/31 02:22:13;;;;;;;1.60;1.50;;;;;;;;;;4956583;29;20204;-84
2022/05/31 02:24:41;;;;;;;1.67;1.58;;;;;;;;;;4956779;29;20225;-83
2022/05/31 02:27:11;;;;;;;1.90;1.67;;;;;;;;;;4952519;29;20244;-84
2022/05/31 02:29:39;;;;;;;1.60;1.50;;;;;;;;;;4956983;29;20216;-84
2022/05/31 02:32:08;;;;;;;1.80;1.70;;;;;;;;;;4956367;29;20215;-83
2022/05/31 02:34:37;;;;;;;1.60;1.50;;;;;;;;;;4956694;29;20208;-84
2022/05/31 02:37:04;;;;;;;1.45;1.35;;;;;;;;;;4956068;29;20234;-84
2022/05/31 02:39:32;;;;;;;1.70;1.60;;;;;;;;;;4957362;29;20224;-84
2022/05/31 02:42:00;;;;;;;1.67;1.58;;;;;;;;;;4955425;29;20200;-84
2022/05/31 02:44:29;;;;;;;1.80;1.70;;;;;;;;;;4956091;29;20232;-83
2022/05/31 02:46:57;;;;;;;1.70;1.60;;;;;;;;;;4956852;29;20228;-84
2022/05/31 02:49:24;;;;;;;2.25;1.80;;;;;;;;;;4956320;29;20213;-84
2022/05/31 02:51:51;;;;;;;1.80;1.70;;;;;;;;;;4955293;29;20205;-82
2022/05/31 02:54:20;;;;;;;1.80;1.50;;;;;;;;;;4956394;29;20646;-83
2022/05/31 02:56:48;;;;;;;1.80;1.70;;;;;;;;;;4956350;29;20236;-83
2022/05/31 02:59:15;;;;;;;2.10;1.52;;;;;;;;;;4956196;29;20620;-83
2022/05/31 03:01:44;;;;;;;2.05;1.48;;;;;;;;;;4950882;29;20228;-83
2022/05/31 03:04:13;;;;;;;1.63;1.52;;;;;;;;;;4954738;29;20231;-83
2022/05/31 03:06:41;;;;;;;2.33;1.63;;;;;;;;;;4955378;28;20248;-83
2022/05/31 03:09:08;;;;;;;1.70;1.60;;;;;;;;;;4951624;29;20211;-84
2022/05/31 03:11:39;;;;;;;1.60;1.50;;;;;;;;;;4950329;29;20233;-83
2022/05/31 03:14:08;;;;;;;1.60;1.50;;;;;;;;;;4955496;29;20219;-84
2022/05/31 03:16:38;;;;;;;1.50;1.40;;;;;;;;;;4952907;29;20232;-83
2022/05/31 03:19:09;;;;;;;1.67;1.58;;;;;;;;;;4955388;29;20259;-81
2022/05/31 03:21:38;;;;;;;1.60;1.50;;;;;;;;;;4955046;29;20299;-83
2022/05/31 03:24:15;;;;;;;2.00;1.50;;;;;;;;;;4955598;29;20243;-83
2022/05/31 03:26:42;;;;;;;2.80;1.67;;;;;;;;;;4955931;29;20286;-84
2022/05/31 03:29:10;;;;;;;2.55;1.60;;;;;;;;;;4956650;29;20243;-83
2022/05/31 03:31:38;;;;;;;1.40;1.30;;;;;;;;;;4954372;29;20599;-83
2022/05/31 03:34:06;;;;;;;1.70;1.60;;;;;;;;;;4952936;29;20236;-83
2022/05/31 03:36:34;;;;;;;1.70;1.60;;;;;;;;;;4953355;29;20251;-84
2022/05/31 03:39:01;;;;;;;1.50;1.40;;;;;;;;;;4956159;29;20218;-84
2022/05/31 03:41:28;;;;;;;1.50;1.40;;;;;;;;;;4954441;29;20292;-82
2022/05/31 03:43:56;;;;;;;1.60;1.50;;;;;;;;;;4955858;29;20256;-83
2022/05/31 03:46:24;;;;;;;1.70;1.60;;;;;;;;;;4950224;29;20224;-83
2022/05/31 03:48:51;;;;;;;1.60;1.50;;;;;;;;;;4956248;29;20212;-83
2022/05/31 03:51:19;;;;;;;1.60;1.50;;;;;;;;;;4954129;29;20243;-82
2022/05/31 03:53:47;;;;;;;1.75;1.65;;;;;;;;;;4954955;29;20239;-83
2022/05/31 03:56:14;;;;;;;1.90;1.67;;;;;;;;;;4954983;29;20204;-84
2022/05/31 03:58:42;;;;;;;1.60;1.50;;;;;;;;;;4954720;29;20205;-84
2022/05/31 04:01:09;;;;;;;1.60;1.50;;;;;;;;;;4954250;29;20251;-83
2022/05/31 04:03:36;;;;;;;2.08;1.70;;;;;;;;;;4954485;29;20209;-84
2022/05/31 04:06:03;;;;;;;1.60;1.50;;;;;;;;;;4953158;29;20220;-83
2022/05/31 04:08:32;;;;;;;1.63;1.52;;;;;;;;;;4978950;23;20314;-81
2022/05/31 04:10:59;;;;;;;2.13;1.70;;;;;;;;;;4969976;28;20208;-81
2022/05/31 04:13:28;;;;;;;2.20;1.70;;;;;;;;;;4972656;28;20200;-81
2022/05/31 04:16:04;;;;;;;1.77;1.67;;;;;;;;;;4969164;28;20197;-81
2022/05/31 04:18:31;;;;;;;1.80;1.50;;;;;;;;;;4959612;28;20226;-81
2022/05/31 04:21:02;;;;;;;1.60;1.50;;;;;;;;;;4957169;29;20232;-81
2022/05/31 04:26:16;;;;;;;1.83;1.65;;;;;;;;;;4951647;29;20224;-81
2022/05/31 04:28:43;;;;;;;1.50;1.40;;;;;;;;;;4958186;29;20263;-80
2022/05/31 04:31:11;;;;;;;3.13;1.65;;;;;;;;;;4961746;29;20219;-82
2022/05/31 04:33:39;;;;;;;2.05;1.65;;;;;;;;;;4963824;28;20232;-80
2022/05/31 04:36:07;;;;;;;12.80;2.60;;;;;;;;;;4971878;28;20207;-82
2022/05/31 04:38:35;;;;;;;14.93;4.68;;;;;;;;;;4959567;28;20327;-82
2022/05/31 04:41:02;;;;;;;40.38;8.85;;;;;;;;;;4961531;29;20204;-80
2022/05/31 04:43:31;;;;;;;48.72;12.43;;;;;;;;;;4957164;29;20295;-82
2022/05/31 04:45:59;;;;;;;53.45;14.02;;;;;;;;;;4958052;28;20229;-83
2022/05/31 04:48:26;;;;;;;4.28;2.10;;;;;;;;;;4967088;28;20215;-81
2022/05/31 04:50:53;;;;;;;7.53;2.75;;;;;;;;;;4963626;28;20217;-81
2022/05/31 04:53:21;;;;;;;11.98;2.55;;;;;;;;;;4957766;29;20663;-80
2022/05/31 04:55:48;;;;;;;12.43;2.75;;;;;;;;;;4958481;29;20224;-81
2022/05/31 04:58:15;;;;;;;8.88;2.65;;;;;;;;;;4958683;28;20327;-81
2022/05/31 05:00:44;;;;;;;7.70;2.70;;;;;;;;;;4959272;29;20291;-80
2022/05/31 05:03:11;;;;;;;7.80;2.95;;;;;;;;;;4954691;29;20276;-81
2022/05/31 05:05:38;;;;;;;9.70;3.33;;;;;;;;;;4957063;29;20279;-81
2022/05/31 05:08:06;;;;;;;10.50;2.92;;;;;;;;;;4959199;28;20295;-81
2022/05/31 05:10:36;;;;;;;7.63;2.85;;;;;;;;;;4957326;29;20280;-88
2022/05/31 05:13:04;;;;;;;6.70;2.50;;;;;;;;;;4957749;29;20212;-80
2022/05/31 05:15:31;;;;;;;6.47;2.50;;;;;;;;;;4956433;29;20201;-82
2022/05/31 05:18:00;;;;;;;10.50;2.97;;;;;;;;;;4953436;28;20243;-80
2022/05/31 05:20:27;;;;;;;9.07;2.50;;;;;;;;;;4955004;29;20208;-81
2022/05/31 05:22:54;;;;;;;9.52;2.35;;;;;;;;;;4951858;29;20247;-81
2022/05/31 05:25:22;;;;;;;8.70;2.58;;;;;;;;;;4947996;29;20240;-80
2022/05/31 05:27:49;;;;;;;9.18;3.25;;;;;;;;;;4951899;29;20732;-80
2022/05/31 05:33:10;;;;;;;7.10;2.67;;;;;;;;;;4950236;28;20219;-79
2022/05/31 05:35:37;;;;;;;8.25;2.85;;;;;;;;;;4959658;28;20197;-81
2022/05/31 05:38:06;;;;;;;8.65;2.95;;;;;;;;;;4953832;28;20260;-86
2022/05/31 05:40:33;;;;;;;9.40;2.58;;;;;;;;;;4962742;28;20208;-80
2022/05/31 05:43:01;;;;;;;5.85;3.10;;;;;;;;;;4955091;29;20364;-81
2022/05/31 05:45:28;;;;;;;7.07;2.75;;;;;;;;;;4955805;29;20229;-80
2022/05/31 05:47:55;;;;;;;9.25;2.50;;;;;;;;;;4957623;29;20291;-81
2022/05/31 05:50:24;;;;;;;9.10;2.90;;;;;;;;;;4958118;29;20220;-81
2022/05/31 05:52:57;;;;;;;7.70;2.80;;;;;;;;;;4954766;29;20276;-81
2022/05/31 05:55:24;;;;;;;4.85;2.70;;;;;;;;;;4958146;29;20209;-81
2022/05/31 05:57:51;;;;;;;6.97;2.88;;;;;;;;;;4956548;28;20225;-80
2022/05/31 06:00:19;;;;;;;8.57;2.60;;;;;;;;;;4957287;29;20300;-81
2022/05/31 06:02:48;;;;;;;5.60;2.30;;;;;;;;;;4955581;29;20213;-81
2022/05/31 06:05:17;;;;;;;4.97;2.40;;;;;;;;;;4956526;29;20232;-81
2022/05/31 06:07:48;;;;;;;5.07;2.20;;;;;;;;;;4956800;28;20512;-80
2022/05/31 06:10:22;;;;;;;5.20;2.38;;;;;;;;;;4956276;28;20201;-81
2022/05/31 06:12:52;;;;;;;4.70;2.45;;;;;;;;;;4955620;29;20238;-81
2022/05/31 06:15:23;;;;;;;3.63;2.22;;;;;;;;;;4956141;29;20211;-80
2022/05/31 06:17:52;;;;;;;3.78;2.20;;;;;;;;;;4953901;29;20220;-79
2022/05/31 06:20:20;;;;;;;4.72;2.30;;;;;;;;;;4950422;29;20212;-80
2022/05/31 06:22:49;;;;;;;3.42;2.40;;;;;;;;;;4955527;29;20220;-80
2022/05/31 06:25:20;;;;;;;4.43;2.25;;;;;;;;;;4949991;29;20239;-80
2022/05/31 06:27:48;;;;;;;5.03;2.40;;;;;;;;;;4951866;28;20232;-80
2022/05/31 06:30:15;;;;;;;3.20;2.20;;;;;;;;;;4956792;29;20205;-80
2022/05/31 06:32:43;;;;;;;4.72;2.13;;;;;;;;;;4956357;29;20232;-80
2022/05/31 06:35:10;;;;;;;5.10;2.30;;;;;;;;;;4950555;28;20202;-80
2022/05/31 06:37:38;;;;;;;5.88;2.22;;;;;;;;;;4956352;29;20296;-80
2022/05/31 06:40:07;;;;;;;3.90;2.17;;;;;;;;;;4955809;29;20208;-80
2022/05/31 06:42:35;;;;;;;3.38;2.47;;;;;;;;;;4954890;29;20204;-80
2022/05/31 06:45:03;;;;;;;3.30;2.17;;;;;;;;;;4955382;29;20204;-80
2022/05/31 06:47:31;;;;;;;4.50;2.00;;;;;;;;;;4957262;28;20224;-80
2022/05/31 06:49:58;;;;;;;3.53;2.30;;;;;;;;;;4955871;29;20219;-80
2022/05/31 06:57:57;;;;;;;3.65;2.20;;;;;;;;;;4957494;29;20219;-80
2022/05/31 07:00:25;;;;;;;4.25;2.28;;;;;;;;;;4957170;28;20264;-80
2022/05/31 07:02:53;;;;;;;2.65;2.05;;;;;;;;;;4957058;28;20691;-80
2022/05/31 07:05:21;;;;;;;4.03;2.13;;;;;;;;;;4955423;29;20209;-80
2022/05/31 07:07:48;;;;;;;3.20;2.20;;;;;;;;;;4955688;28;20252;-80
2022/05/31 07:10:17;;;;;;;2.70;2.10;;;;;;;;;;4957091;29;20291;-81
2022/05/31 07:12:50;;;;;;;3.47;2.00;;;;;;;;;;4957047;29;20232;-80
2022/05/31 07:15:18;;;;;;;2.20;2.00;;;;;;;;;;4956845;29;20217;-80
2022/05/31 07:17:46;;;;;;;4.22;1.73;;;;;;;;;;4956872;28;20221;-81
2022/05/31 07:20:14;;;;;;;2.30;1.90;;;;;;;;;;4956980;29;20216;-80
2022/05/31 07:22:41;;;;;;;4.10;1.85;;;;;;;;;;4956202;29;20201;-80
2022/05/31 07:25:09;;;;;;;3.00;2.03;;;;;;;;;;4952937;29;20259;-81
2022/05/31 07:27:38;;;;;;;3.03;2.00;;;;;;;;;;4956166;29;20231;-80
2022/05/31 07:30:06;;;;;;;2.65;1.98;;;;;;;;;;4956477;29;20208;-79
2022/05/31 07:32:33;;;;;;;2.88;1.98;;;;;;;;;;4956155;29;20295;-80
2022/05/31 07:35:01;;;;;;;2.95;1.80;;;;;;;;;;4956451;29;20243;-80
2022/05/31 07:37:28;;;;;;;3.33;2.10;;;;;;;;;;4956030;29;20224;-80
2022/05/31 07:39:55;;;;;;;3.92;1.80;;;;;;;;;;4955975;29;20256;-80
2022/05/31 07:42:22;;;;;;;2.88;2.00;;;;;;;;;;4956338;28;20309;-80
2022/05/31 07:44:54;;;;;;;2.00;1.80;;;;;;;;;;4956247;29;20205;-81
2022/05/31 07:47:21;;;;;;;3.15;1.90;;;;;;;;;;4956580;28;20220;-80
2022/05/31 07:49:50;;;;;;;2.30;1.67;;;;;;;;;;4956570;29;20295;-80
2022/05/31 07:52:18;;;;;;;2.22;2.03;;;;;;;;;;4950154;28;20208;-80
2022/05/31 07:54:45;;;;;;;2.10;1.90;;;;;;;;;;4956470;29;20292;-81
2022/05/31 07:59:55;;;;;;;2.70;1.90;;;;;;;;;;4958086;29;20201;-82
2022/05/31 08:02:23;;;;;;;2.55;1.85;;;;;;;;;;4958896;29;20216;-81
2022/05/31 08:04:50;;;;;;;1.90;1.75;;;;;;;;;;4959570;29;20244;-81
2022/05/31 08:07:18;;;;;;;3.65;2.08;;;;;;;;;;4958226;28;20224;-81
2022/05/31 08:09:45;;;;;;;2.38;1.70;;;;;;;;;;4959331;29;20212;-81
2022/05/31 08:12:12;;;;;;;2.08;1.88;;;;;;;;;;4959194;29;20303;-81
2022/05/31 08:14:40;;;;;;;3.00;1.90;;;;;;;;;;4959618;29;20239;-81
2022/05/31 08:17:09;;;;;;;2.45;1.83;;;;;;;;;;4958987;29;20205;-81
2022/05/31 08:19:38;;;;;;;3.05;2.05;;;;;;;;;;4959286;29;20295;-81
2022/05/31 08:22:05;;;;;;;2.20;1.70;;;;;;;;;;4958592;29;20245;-80
2022/05/31 08:24:33;;;;;;;1.75;1.60;;;;;;;;;;4958469;29;20208;-80
2022/05/31 08:27:00;;;;;;;2.42;1.80;;;;;;;;;;4957874;29;20704;-81
2022/05/31 08:29:28;;;;;;;2.50;1.60;;;;;;;;;;4958015;28;20259;-81
2022/05/31 08:31:58;;;;;;;2.33;1.63;;;;;;;;;;4957947;29;20217;-81
2022/05/31 08:34:27;;;;;;;1.98;1.75;;;;;;;;;;4958707;29;20248;-81
2022/05/31 08:36:54;;;;;;;1.92;1.70;;;;;;;;;;4958042;29;20207;-81
2022/05/31 08:39:22;;;;;;;1.90;1.70;;;;;;;;;;4964143;29;20236;-80
2022/05/31 08:41:51;;;;;;;2.25;1.85;;;;;;;;;;4964816;29;20204;-80
2022/05/31 08:44:30;;;;;;;1.85;1.60;;;;;;;;;;4968289;29;20304;-80
2022/05/31 08:47:01;;;;;;;2.67;2.00;;;;;;;;;;4968467;29;20252;-80
2022/05/31 08:52:52;;;;;;;3.17;1.70;;;;;;;;;;4885390;29;20203;-81
2022/05/31 08:58:08;;;;;;;1.98;1.77;;;;;;;;;;4931759;29;20223;-80
2022/05/31 09:00:36;;;;;;;2.03;1.63;;;;;;;;;;4960651;29;20282;-81
2022/05/31 09:03:07;;;;;;;2.10;1.70;;;;;;;;;;4961459;29;20232;-81
2022/05/31 09:05:37;;;;;;;2.25;1.60;;;;;;;;;;4962753;28;20299;-81
2022/05/31 09:08:09;;;;;;;2.15;1.95;;;;;;;;;;4959853;29;20296;-81
2022/05/31 09:10:40;;;;;;;1.92;1.70;;;;;;;;;;4963288;29;20215;-81
2022/05/31 09:13:15;;;;;;;1.60;1.50;;;;;;;;;;4963452;29;20203;-82
2022/05/31 09:15:44;;;;;;;2.50;1.88;;;;;;;;;;4964273;29;20278;-81
2022/05/31 09:18:13;;;;;;;2.20;1.60;;;;;;;;;;4964139;29;20224;-79
2022/05/31 09:20:43;;;;;;;1.65;1.55;;;;;;;;;;4963866;29;20209;-80
2022/05/31 09:23:14;;;;;;;1.50;1.38;;;;;;;;;;4960298;29;20212;-80
2022/05/31 09:25:42;;;;;;;2.10;1.63;;;;;;;;;;4951733;29;20224;-81
2022/05/31 09:28:18;;;;;;;1.40;1.30;;;;;;;;;;4958799;29;20315;-80
2022/05/31 09:30:47;;;;;;;1.70;1.60;;;;;;;;;;4958762;29;20263;-80
2022/05/31 09:33:19;;;;;;;1.73;1.50;;;;;;;;;;4958372;28;20204;-79
2022/05/31 09:35:59;;;;;;;1.60;1.50;;;;;;;;;;4957896;29;20205;-80
2022/05/31 09:38:44;;;;;;;1.73;1.63;;;;;;;;;;4953078;28;20260;-80
2022/05/31 09:41:16;;;;;;;1.52;1.40;;;;;;;;;;4958442;29;20204;-80
2022/05/31 09:43:47;;;;;;;1.70;1.60;;;;;;;;;;4958452;29;20213;-80
2022/05/31 09:46:18;;;;;;;2.83;1.60;;;;;;;;;;4958162;29;20681;-79
2022/05/31 09:48:48;;;;;;;2.50;1.65;;;;;;;;;;4958124;29;20225;-80
2022/05/31 09:51:19;;;;;;;1.70;1.60;;;;;;;;;;4957539;29;20296;-80
2022/05/31 09:59:23;;;;;;;1.92;1.83;;;;;;;;;;4959216;29;20223;-80
2022/05/31 10:01:51;;;;;;;2.95;1.40;;;;;;;;;;4954035;29;20247;-81
2022/05/31 10:04:22;;;;;;;3.85;1.80;;;;;;;;;;4957563;28;20296;-82
2022/05/31 10:06:55;;;;;;;4.28;1.77;;;;;;;;;;4954532;29;20287;-81
2022/05/31 10:09:25;;;;;;;1.85;1.52;;;;;;;;;;5006992;23;20251;-82
2022/05/31 10:18:01;;;;;;;1.67;1.50;;;;;;;;;;4895968;29;20243;-81
2022/05/31 10:23:37;;;;;;;2.95;2.13;;;;;;;;;;4875810;29;20213;-81
2022/05/31 10:29:18;;;;;;;;;;;;;;;;;;;;;
2022/05/31 10:35:02;;;;;;;50.10;45.13;;;;;;;;;;4907923;29;20214;-85
2022/05/31 10:37:45;;;;;;;53.78;48.42;;;;;;;;;;4914417;29;20217;-85
2022/05/31 10:40:23;;;;;;;48.78;44.08;;;;;;;;;;4913351;29;20230;-83
2022/05/31 10:42:54;;;;;;;43.65;39.38;;;;;;;;;;4915551;29;20311;-83
2022/05/31 10:45:24;;;;;;;40.08;36.13;;;;;;;;;;4915768;29;20210;-83
2022/05/31 10:47:54;;;;;;;38.38;34.55;;;;;;;;;;4915121;29;20282;-84
2022/05/31 10:50:33;;;;;;;38.72;34.97;;;;;;;;;;4911412;29;20202;-84
2022/05/31 10:53:06;;;;;;;34.67;31.35;;;;;;;;;;4926649;29;20204;-83
2022/05/31 10:55:38;;;;;;;35.13;31.73;;;;;;;;;;4953025;29;20204;-82
2022/05/31 10:58:11;;;;;;;33.88;30.65;;;;;;;;;;4959916;29;20229;-83
2022/05/31 11:00:46;;;;;;;33.08;29.67;;;;;;;;;;4958940;28;20240;-83
2022/05/31 11:12:42;;;;;;;27.60;24.80;;;;;;;;;;4922279;29;20221;-82
2022/05/31 11:19:01;;;;;;;26.75;24.13;;;;;;;;;;4818551;29;20221;-82
2022/05/31 11:30:41;;;;;;;23.92;21.38;;;;;;;;;;4806406;29;20382;-85
2022/05/31 11:33:20;;;;;;;24.52;21.17;;;;;;;;;;4817216;29;20221;-81
2022/05/31 11:35:55;;;;;;;23.52;20.80;;;;;;;;;;4842790;29;20236;-84
2022/05/31 11:38:27;;;;;;;25.10;19.30;;;;;;;;;;4860602;29;20264;-87
2022/05/31 11:41:01;;;;;;;15.07;11.32;;;;;;;;;;4859436;29;20236;-87
2022/05/31 11:43:38;;;;;;;16.27;9.55;;;;;;;;;;4862195;29;20357;-86
2022/05/31 11:46:10;;;;;;;3.30;2.47;;;;;;;;;;4859006;29;20263;-87
2022/05/31 11:48:48;;;;;;;1.83;1.65;;;;;;;;;;4892235;29;20233;-86
2022/05/31 11:51:19;;;;;;;2.92;2.47;;;;;;;;;;4937016;29;20217;-84
2022/05/31 11:54:04;;;;;;;7.93;6.72;;;;;;;;;;4932024;29;20198;-83
2022/05/31 11:56:35;;;;;;;10.38;8.93;;;;;;;;;;4929347;29;20284;-82
2022/05/31 11:59:05;;;;;;;9.60;8.30;;;;;;;;;;4939386;29;20224;-82
2022/05/31 12:01:37;;;;;;;8.82;7.78;;;;;;;;;;4979277;28;20219;-82
2022/05/31 12:04:07;;;;;;;8.55;7.65;;;;;;;;;;4981806;28;20291;-83
2022/05/31 12:06:38;;;;;;;8.50;7.70;;;;;;;;;;4976345;28;20214;-82
2022/05/31 12:09:14;;;;;;;8.35;6.45;;;;;;;;;;4973438;28;20247;-82
2022/05/31 12:11:49;;;;;;;7.97;6.75;;;;;;;;;;4982125;28;20272;-82
2022/05/31 12:14:16;;;;;;;6.97;6.28;;;;;;;;;;4984317;28;20211;-83
2022/05/31 12:16:44;;;;;;;9.20;6.07;;;;;;;;;;4980015;28;20204;-83
2022/05/31 12:19:16;;;;;;;8.02;5.75;;;;;;;;;;4974219;28;20254;-83
2022/05/31 12:21:46;;;;;;;6.25;5.32;;;;;;;;;;4981264;28;20204;-82
2022/05/31 12:24:17;;;;;;;7.38;4.93;;;;;;;;;;4974890;28;20249;-82
2022/05/31 12:26:50;;;;;;;5.93;5.15;;;;;;;;;;4977969;28;20279;-82
2022/05/31 12:29:22;;;;;;;5.78;4.80;;;;;;;;;;4981420;28;20239;-83
2022/05/31 12:31:50;;;;;;;5.30;4.60;;;;;;;;;;4982193;28;20207;-83
2022/05/31 12:34:37;;;;;;;6.13;4.70;;;;;;;;;;4975819;28;20204;-82
2022/05/31 12:37:08;;;;;;;4.75;4.28;;;;;;;;;;4971217;28;20196;-83
2022/05/31 12:39:37;;;;;;;4.85;4.35;;;;;;;;;;4972070;28;20720;-81
2022/05/31 12:42:18;;;;;;;5.47;4.38;;;;;;;;;;4966873;28;20347;-81
2022/05/31 12:44:46;;;;;;;4.82;4.40;;;;;;;;;;4975840;28;20309;-81
2022/05/31 12:47:16;;;;;;;5.63;3.88;;;;;;;;;;4976546;28;20216;-82
2022/05/31 12:49:52;;;;;;;4.38;3.97;;;;;;;;;;4975962;28;20228;-81
2022/05/31 12:55:16;;;;;;;5.22;3.92;;;;;;;;;;4934964;28;20202;-81
2022/05/31 13:00:42;;;;;;;4.30;3.90;;;;;;;;;;4980766;28;20206;-81
2022/05/31 13:03:24;;;;;;;5.97;4.22;;;;;;;;;;4980091;28;20207;-82
2022/05/31 13:05:59;;;;;;;4.20;3.78;;;;;;;;;;4980319;28;20230;-82
2022/05/31 13:08:55;;;;;;;4.38;3.97;;;;;;;;;;4979216;28;20687;-82
2022/05/31 13:20:11;;;;;;;4.00;3.42;;;;;;;;;;4969818;28;20293;-85
2022/05/31 13:22:42;;;;;;;3.92;3.50;;;;;;;;;;4972204;28;20207;-85
2022/05/31 13:25:16;;;;;;;3.80;3.28;;;;;;;;;;4973035;28;20290;-85
2022/05/31 13:27:45;;;;;;;4.05;3.50;;;;;;;;;;4974155;28;20236;-85
2022/05/31 13:30:18;;;;;;;3.88;3.10;;;;;;;;;;4978744;28;20235;-82
2022/05/31 13:32:46;;;;;;;4.35;3.35;;;;;;;;;;4975406;28;20204;-82
2022/05/31 13:35:17;;;;;;;3.58;3.25;;;;;;;;;;4974371;28;20223;-82
2022/05/31 13:37:56;;;;;;;3.42;3.08;;;;;;;;;;4980706;28;20216;-82
2022/05/31 13:40:24;;;;;;;3.45;3.15;;;;;;;;;;4980394;28;20203;-82
2022/05/31 13:42:52;;;;;;;4.90;3.10;;;;;;;;;;4979478;28;20286;-82
2022/05/31 13:45:24;;;;;;;3.15;2.95;;;;;;;;;;4978984;28;20614;-82
2022/05/31 13:47:54;;;;;;;3.40;3.10;;;;;;;;;;4980398;28;20227;-82
2022/05/31 13:50:23;;;;;;;4.57;3.42;;;;;;;;;;4979829;28;20243;-82
2022/05/31 13:52:51;;;;;;;4.72;3.13;;;;;;;;;;4978551;28;20212;-82
2022/05/31 13:55:21;;;;;;;3.30;3.00;;;;;;;;;;4979742;28;20212;-82
2022/05/31 13:57:56;;;;;;;3.50;2.92;;;;;;;;;;4979983;28;20676;-82
2022/05/31 14:00:42;;;;;;;3.70;3.10;;;;;;;;;;4979364;28;20215;-82
2022/05/31 14:03:14;;;;;;;3.53;3.13;;;;;;;;;;4979264;28;20216;-82
2022/05/31 14:05:43;;;;;;;2.95;2.75;;;;;;;;;;4979793;28;20235;-82
2022/05/31 14:08:11;;;;;;;3.55;3.15;;;;;;;;;;4979995;28;20235;-82
2022/05/31 14:10:47;;;;;;;3.08;2.78;;;;;;;;;;4980263;28;20211;-82
2022/05/31 14:13:24;;;;;;;3.33;2.70;;;;;;;;;;4978902;28;20226;-82
2022/05/31 14:16:09;;;;;;;3.50;2.83;;;;;;;;;;4980417;28;20211;-82
2022/05/31 14:18:40;;;;;;;4.68;3.10;;;;;;;;;;4979811;28;20290;-82
2022/05/31 14:21:08;;;;;;;3.42;3.13;;;;;;;;;;4979766;28;20207;-82
2022/05/31 14:23:36;;;;;;;3.08;2.83;;;;;;;;;;4979306;28;20234;-82
2022/05/31 14:26:06;;;;;;;3.10;2.78;;;;;;;;;;4980090;28;20275;-82
2022/05/31 14:28:34;;;;;;;3.17;2.83;;;;;;;;;;4979827;28;20703;-82
2022/05/31 14:31:03;;;;;;;2.92;2.55;;;;;;;;;;4980070;28;20234;-82
2022/05/31 14:33:33;;;;;;;2.53;2.33;;;;;;;;;;4979341;28;20208;-82
2022/05/31 14:36:01;;;;;;;3.70;2.70;;;;;;;;;;4980215;28;20247;-82
2022/05/31 14:38:30;;;;;;;3.45;2.65;;;;;;;;;;4979690;28;20232;-82
2022/05/31 14:41:00;;;;;;;3.03;2.75;;;;;;;;;;4980109;28;20702;-82
2022/05/31 14:43:29;;;;;;;3.40;3.10;;;;;;;;;;4979433;28;20299;-82
2022/05/31 14:45:57;;;;;;;3.47;2.50;;;;;;;;;;4977910;28;20204;-82
2022/05/31 14:48:47;;;;;;;3.13;2.67;;;;;;;;;;4978640;28;20255;-82
2022/05/31 14:51:17;;;;;;;2.70;2.42;;;;;;;;;;4979072;28;20212;-81
2022/05/31 14:53:45;;;;;;;2.90;2.60;;;;;;;;;;4974121;28;20624;-82
2022/05/31 14:56:21;;;;;;;3.20;2.88;;;;;;;;;;4973292;28;20275;-82
2022/05/31 14:58:48;;;;;;;2.78;2.58;;;;;;;;;;4979453;28;20310;-82
2022/05/31 15:01:18;;;;;;;2.97;2.40;;;;;;;;;;4979777;28;20219;-82
2022/05/31 15:03:49;;;;;;;2.90;2.70;;;;;;;;;;4979121;28;20282;-82
2022/05/31 15:06:25;;;;;;;2.88;2.60;;;;;;;;;;4979720;28;20211;-82
2022/05/31 15:09:01;;;;;;;2.97;2.50;;;;;;;;;;4980277;28;20247;-82
2022/05/31 15:19:47;;;;;;;2.60;2.40;;;;;;;;;;4978815;28;20234;-82
2022/05/31 15:22:15;;;;;;;2.80;2.35;;;;;;;;;;4977696;28;20207;-82
2022/05/31 15:24:45;;;;;;;2.50;2.30;;;;;;;;;;4978835;28;20208;-82
2022/05/31 15:27:15;;;;;;;3.38;2.38;;;;;;;;;;4978890;28;20219;-82
2022/05/31 15:29:42;;;;;;;2.47;2.20;;;;;;;;;;4979623;28;20242;-82
2022/05/31 15:32:10;;;;;;;2.83;2.45;;;;;;;;;;4979690;28;20207;-82
2022/05/31 15:34:38;;;;;;;2.30;2.10;;;;;;;;;;4980301;28;20211;-82
2022/05/31 15:37:08;;;;;;;2.65;2.45;;;;;;;;;;4979629;28;20250;-82
2022/05/31 15:39:36;;;;;;;2.42;2.22;;;;;;;;;;4979560;28;20239;-82
2022/05/31 15:42:10;;;;;;;2.65;2.22;;;;;;;;;;4978587;28;20208;-82
2022/05/31 15:44:38;;;;;;;2.65;2.38;;;;;;;;;;4973005;28;20265;-82
2022/05/31 15:47:06;;;;;;;2.30;2.10;;;;;;;;;;4977623;28;20227;-82
2022/05/31 15:49:33;;;;;;;2.70;2.28;;;;;;;;;;4965145;28;20224;-83
2022/05/31 15:52:02;;;;;;;2.50;2.30;;;;;;;;;;4974637;28;20255;-83
2022/05/31 15:54:35;;;;;;;2.78;2.42;;;;;;;;;;4977737;28;20204;-84
2022/05/31 15:57:03;;;;;;;4.25;2.45;;;;;;;;;;4980239;28;20196;-83
2022/05/31 15:59:31;;;;;;;2.55;2.35;;;;;;;;;;4984141;28;20215;-83
2022/05/31 16:01:59;;;;;;;3.38;2.40;;;;;;;;;;4976162;28;20204;-81
2022/05/31 16:04:26;;;;;;;3.65;2.20;;;;;;;;;;4979623;28;20673;-81
2022/05/31 16:06:54;;;;;;;2.60;2.40;;;;;;;;;;4976878;28;20263;-80
2022/05/31 16:09:23;;;;;;;2.42;2.10;;;;;;;;;;4979066;28;20231;-80
2022/05/31 16:11:52;;;;;;;4.00;2.58;;;;;;;;;;4977621;28;20210;-80
2022/05/31 16:14:22;;;;;;;2.60;2.22;;;;;;;;;;4981739;28;20647;-80
2022/05/31 16:16:52;;;;;;;2.45;2.25;;;;;;;;;;4980564;28;20203;-81
2022/05/31 16:19:22;;;;;;;2.50;2.17;;;;;;;;;;4989580;28;20291;-81
2022/05/31 16:21:50;;;;;;;2.60;2.40;;;;;;;;;;4988427;28;20234;-80
2022/05/31 16:24:20;;;;;;;4.05;2.20;;;;;;;;;;4995249;28;20196;-80